Time;durP1;ratioP1;P1;durP2;ratioP2;P2;SDS_P1;SDS_P2;PMS_P1;PMS_P2;Temp;Humidity;BMP_temperature;BMP_pressure;BME280_temperature;BME280_humidity;BME280_pressure;Samples;Min_cycle;Max_cycle;Signal;HPM_P1;HPM_P2
2023/06/29 00:01:07;;;;;;;10.13;6.00;;;;;;;;;;5054830;28;20033;-69
2023/06/29 00:03:33;;;;;;;9.73;5.88;;;;;;;;;;5052430;28;20088;-69
2023/06/29 00:05:59;;;;;;;14.45;6.25;;;;;;;;;;5053457;28;20029;-69
2023/06/29 00:08:27;;;;;;;12.10;5.95;;;;;;;;;;5055046;28;20063;-69
2023/06/29 00:10:54;;;;;;;11.32;5.38;;;;;;;;;;5055437;28;20503;-69
2023/06/29 00:13:20;;;;;;;10.45;5.57;;;;;;;;;;5055440;28;20028;-69
2023/06/29 00:15:48;;;;;;;14.35;6.18;;;;;;;;;;5053628;28;20025;-69
2023/06/29 00:18:14;;;;;;;11.57;5.95;;;;;;;;;;5054951;28;20395;-69
2023/06/29 00:20:41;;;;;;;10.40;5.53;;;;;;;;;;5050450;28;20065;-69
2023/06/29 00:23:07;;;;;;;9.27;5.65;;;;;;;;;;5035435;28;20025;-69
2023/06/29 00:25:34;;;;;;;13.02;5.70;;;;;;;;;;5035289;28;20060;-69
2023/06/29 00:27:59;;;;;;;14.52;6.90;;;;;;;;;;5052265;28;20032;-69
2023/06/29 00:30:25;;;;;;;17.65;6.32;;;;;;;;;;5053391;28;20037;-69
2023/06/29 00:32:51;;;;;;;8.98;5.60;;;;;;;;;;5050634;28;20038;-69
2023/06/29 00:35:17;;;;;;;12.18;5.82;;;;;;;;;;5070057;28;20033;-69
2023/06/29 00:37:43;;;;;;;13.50;5.85;;;;;;;;;;5053439;28;20024;-69
2023/06/29 00:40:09;;;;;;;11.52;5.43;;;;;;;;;;5050009;28;20037;-69
2023/06/29 00:42:35;;;;;;;10.65;5.38;;;;;;;;;;5053368;28;20094;-69
2023/06/29 00:45:03;;;;;;;13.00;6.03;;;;;;;;;;5054473;28;20091;-69
2023/06/29 00:47:30;;;;;;;8.07;5.20;;;;;;;;;;5054410;28;20035;-69
2023/06/29 00:49:56;;;;;;;18.60;6.63;;;;;;;;;;5049861;28;20038;-69
2023/06/29 00:52:23;;;;;;;13.25;5.45;;;;;;;;;;5051065;28;20042;-69
2023/06/29 00:54:53;;;;;;;11.95;5.75;;;;;;;;;;5033412;28;20056;-69
2023/06/29 00:57:19;;;;;;;10.35;5.03;;;;;;;;;;5034540;28;20036;-69
2023/06/29 00:59:45;;;;;;;15.68;5.97;;;;;;;;;;5034429;28;20028;-69
2023/06/29 01:02:11;;;;;;;10.30;6.30;;;;;;;;;;5033521;28;20033;-69
2023/06/29 01:04:38;;;;;;;12.18;6.43;;;;;;;;;;5033122;28;20539;-69
2023/06/29 01:07:37;;;;;;;12.25;6.53;;;;;;;;;;5039828;28;20506;-69
2023/06/29 01:10:08;;;;;;;8.88;5.97;;;;;;;;;;5035363;28;20044;-69
2023/06/29 01:12:35;;;;;;;10.13;6.72;;;;;;;;;;5039374;28;20034;-69
2023/06/29 01:15:03;;;;;;;11.05;6.20;;;;;;;;;;5065664;28;20230;-69
2023/06/29 01:17:31;;;;;;;15.23;6.10;;;;;;;;;;5032013;28;20048;-69
2023/06/29 01:19:58;;;;;;;12.38;6.55;;;;;;;;;;5060974;28;20040;-69
2023/06/29 01:22:36;;;;;;;12.45;5.80;;;;;;;;;;5047243;28;20034;-69
2023/06/29 01:25:02;;;;;;;9.30;5.60;;;;;;;;;;5033515;28;20041;-69
2023/06/29 01:27:28;;;;;;;14.20;5.90;;;;;;;;;;5041730;28;20043;-69
2023/06/29 01:29:55;;;;;;;11.05;6.07;;;;;;;;;;5037890;28;20060;-68
2023/06/29 01:32:33;;;;;;;11.98;5.68;;;;;;;;;;5041565;28;20442;-68
2023/06/29 01:35:00;;;;;;;11.07;5.97;;;;;;;;;;5041644;28;20384;-68
2023/06/29 01:37:34;;;;;;;11.20;6.03;;;;;;;;;;5041501;28;20471;-69
2023/06/29 01:40:06;;;;;;;9.25;5.80;;;;;;;;;;5033861;28;20033;-69
2023/06/29 01:42:33;;;;;;;11.30;6.10;;;;;;;;;;5041573;28;20041;-69
2023/06/29 01:45:01;;;;;;;10.07;6.32;;;;;;;;;;5035010;28;20030;-69
2023/06/29 01:47:28;;;;;;;11.25;5.82;;;;;;;;;;5039753;28;20048;-69
2023/06/29 01:49:54;;;;;;;20.02;6.28;;;;;;;;;;5041888;28;20029;-69
2023/06/29 01:52:20;;;;;;;11.68;6.05;;;;;;;;;;5034843;28;20395;-69
2023/06/29 01:54:46;;;;;;;9.82;6.20;;;;;;;;;;5048592;28;20017;-69
2023/06/29 01:57:12;;;;;;;14.60;6.00;;;;;;;;;;5036198;28;20029;-69
2023/06/29 01:59:39;;;;;;;17.83;7.07;;;;;;;;;;5056547;28;20060;-69
2023/06/29 02:02:05;;;;;;;12.90;6.75;;;;;;;;;;5039873;28;20094;-68
2023/06/29 02:04:32;;;;;;;10.82;6.20;;;;;;;;;;5048033;28;20103;-69
2023/06/29 02:06:57;;;;;;;10.90;6.00;;;;;;;;;;5041010;28;20474;-70
2023/06/29 02:09:23;;;;;;;14.40;6.60;;;;;;;;;;5039168;28;20086;-69
2023/06/29 02:11:49;;;;;;;10.30;6.30;;;;;;;;;;5044375;28;20029;-69
2023/06/29 02:14:17;;;;;;;13.77;6.70;;;;;;;;;;5049367;28;20384;-70
2023/06/29 02:16:45;;;;;;;13.35;6.70;;;;;;;;;;5047424;28;20169;-69
2023/06/29 02:19:13;;;;;;;10.90;6.15;;;;;;;;;;5047674;28;20040;-69
2023/06/29 02:21:39;;;;;;;10.90;6.43;;;;;;;;;;5037790;28;20041;-68
2023/06/29 02:24:05;;;;;;;10.13;6.90;;;;;;;;;;5058777;28;20021;-68
2023/06/29 02:26:31;;;;;;;14.23;6.07;;;;;;;;;;5036654;28;20033;-69
2023/06/29 02:28:56;;;;;;;12.80;6.60;;;;;;;;;;5050854;28;20506;-69
2023/06/29 02:31:22;;;;;;;17.38;6.30;;;;;;;;;;5048356;28;20032;-69
2023/06/29 02:33:49;;;;;;;8.63;6.00;;;;;;;;;;5052483;28;20376;-69
2023/06/29 02:36:17;;;;;;;10.93;6.70;;;;;;;;;;5031941;28;20060;-69
2023/06/29 02:38:43;;;;;;;10.65;6.78;;;;;;;;;;5049851;28;20031;-68
2023/06/29 02:41:09;;;;;;;10.90;7.07;;;;;;;;;;5045807;28;20032;-69
2023/06/29 02:43:35;;;;;;;11.23;6.60;;;;;;;;;;5045202;28;20029;-69
2023/06/29 02:46:00;;;;;;;9.20;6.78;;;;;;;;;;5040216;28;20037;-69
2023/06/29 02:48:30;;;;;;;10.63;6.60;;;;;;;;;;5065262;28;20515;-69
2023/06/29 02:50:56;;;;;;;13.55;6.90;;;;;;;;;;5041970;28;20037;-69
2023/06/29 02:53:22;;;;;;;9.93;6.68;;;;;;;;;;5032306;28;20029;-68
2023/06/29 02:55:48;;;;;;;10.75;6.90;;;;;;;;;;5039427;28;20048;-70
2023/06/29 02:58:14;;;;;;;10.75;6.70;;;;;;;;;;5033967;28;20033;-69
2023/06/29 03:00:40;;;;;;;10.52;6.50;;;;;;;;;;5029969;28;20079;-69
2023/06/29 03:03:06;;;;;;;12.98;6.05;;;;;;;;;;5036832;28;20390;-68
2023/06/29 03:05:31;;;;;;;13.25;6.90;;;;;;;;;;5035825;28;20124;-69
2023/06/29 03:07:57;;;;;;;13.27;7.25;;;;;;;;;;5041371;28;20667;-69
2023/06/29 03:10:23;;;;;;;11.85;6.75;;;;;;;;;;5042125;28;20094;-69
2023/06/29 03:12:49;;;;;;;18.35;8.40;;;;;;;;;;5042748;28;20150;-69
2023/06/29 03:15:14;;;;;;;10.98;7.38;;;;;;;;;;5039658;28;20037;-69
2023/06/29 03:17:40;;;;;;;8.85;5.20;;;;;;;;;;5035047;28;20531;-69
2023/06/29 03:20:06;;;;;;;12.23;6.78;;;;;;;;;;5042018;28;20033;-70
2023/06/29 03:22:33;;;;;;;9.07;5.82;;;;;;;;;;5031742;28;20506;-69
2023/06/29 03:24:58;;;;;;;10.98;6.63;;;;;;;;;;5045185;28;20037;-70
2023/06/29 03:27:24;;;;;;;10.98;6.00;;;;;;;;;;5039586;28;20017;-71
2023/06/29 03:29:52;;;;;;;11.95;6.38;;;;;;;;;;5040189;28;20595;-70
2023/06/29 03:32:18;;;;;;;11.32;6.15;;;;;;;;;;5030024;28;20037;-71
2023/06/29 03:34:43;;;;;;;11.52;5.93;;;;;;;;;;5030335;28;20053;-69
2023/06/29 03:37:10;;;;;;;14.48;5.88;;;;;;;;;;5030142;28;20068;-69
2023/06/29 03:39:35;;;;;;;9.45;5.78;;;;;;;;;;5029606;28;20128;-69
2023/06/29 03:42:01;;;;;;;11.98;6.10;;;;;;;;;;5037405;28;20045;-69
2023/06/29 03:44:27;;;;;;;8.40;5.65;;;;;;;;;;5049160;28;20103;-68
2023/06/29 03:46:52;;;;;;;10.38;5.35;;;;;;;;;;5049499;28;20335;-68
2023/06/29 03:49:18;;;;;;;12.15;5.70;;;;;;;;;;5047785;28;20063;-69
2023/06/29 03:51:44;;;;;;;12.38;5.60;;;;;;;;;;5048662;28;20029;-69
2023/06/29 03:54:09;;;;;;;12.23;5.13;;;;;;;;;;5048934;28;20083;-70
2023/06/29 03:56:35;;;;;;;11.75;5.47;;;;;;;;;;5047621;28;20075;-69
2023/06/29 03:59:01;;;;;;;8.15;4.53;;;;;;;;;;5029477;28;20084;-68
2023/06/29 04:01:27;;;;;;;18.52;5.88;;;;;;;;;;5039251;28;20533;-69
2023/06/29 04:03:53;;;;;;;10.80;5.00;;;;;;;;;;5045442;28;20056;-68
2023/06/29 04:06:19;;;;;;;14.20;4.97;;;;;;;;;;5030041;28;20029;-69
2023/06/29 04:08:45;;;;;;;19.38;5.85;;;;;;;;;;5029722;28;20033;-69
2023/06/29 04:11:12;;;;;;;12.25;5.00;;;;;;;;;;5045393;28;20391;-70
2023/06/29 04:13:38;;;;;;;10.50;5.22;;;;;;;;;;5033042;28;20048;-68
2023/06/29 04:16:04;;;;;;;11.02;4.63;;;;;;;;;;5047105;28;20014;-69
2023/06/29 04:18:29;;;;;;;19.50;4.88;;;;;;;;;;5040769;28;20071;-69
2023/06/29 04:20:55;;;;;;;19.10;4.78;;;;;;;;;;5044881;28;20022;-69
2023/06/29 04:23:21;;;;;;;14.38;5.28;;;;;;;;;;5048803;28;20027;-69
2023/06/29 04:25:46;;;;;;;8.98;4.70;;;;;;;;;;5049883;28;20522;-69
2023/06/29 04:28:12;;;;;;;12.43;5.28;;;;;;;;;;5052601;28;20584;-69
2023/06/29 04:30:42;;;;;;;12.30;4.25;;;;;;;;;;5052316;28;20079;-68
2023/06/29 04:33:11;;;;;;;18.13;4.80;;;;;;;;;;5043235;28;20548;-68
2023/06/29 04:35:40;;;;;;;6.90;4.10;;;;;;;;;;5052093;28;20061;-69
2023/06/29 04:38:10;;;;;;;14.65;4.68;;;;;;;;;;5051300;28;20036;-69
2023/06/29 04:40:37;;;;;;;9.32;4.55;;;;;;;;;;5041861;28;20041;-69
2023/06/29 04:43:03;;;;;;;10.00;4.70;;;;;;;;;;5046438;28;20021;-69
2023/06/29 04:45:31;;;;;;;13.60;4.88;;;;;;;;;;5043235;28;20041;-69
2023/06/29 04:47:59;;;;;;;11.82;5.05;;;;;;;;;;5041821;28;20104;-69
2023/06/29 04:50:25;;;;;;;14.35;5.70;;;;;;;;;;5049974;28;20513;-70
2023/06/29 04:52:55;;;;;;;14.68;5.35;;;;;;;;;;5053102;28;20079;-69
2023/06/29 04:55:22;;;;;;;12.30;4.75;;;;;;;;;;5053241;28;20029;-69
2023/06/29 04:57:48;;;;;;;13.52;5.13;;;;;;;;;;5053717;28;20482;-67
2023/06/29 05:00:15;;;;;;;7.68;4.68;;;;;;;;;;5052499;28;20188;-68
2023/06/29 05:02:41;;;;;;;11.57;4.85;;;;;;;;;;5050727;28;20025;-68
2023/06/29 05:05:08;;;;;;;8.27;4.53;;;;;;;;;;5053456;28;20032;-69
2023/06/29 05:07:34;;;;;;;15.25;5.13;;;;;;;;;;5053505;28;20143;-68
2023/06/29 05:10:01;;;;;;;10.68;4.90;;;;;;;;;;5053275;28;20029;-69
2023/06/29 05:12:26;;;;;;;9.30;5.28;;;;;;;;;;5053267;28;20017;-69
2023/06/29 05:14:52;;;;;;;12.43;4.70;;;;;;;;;;5041960;28;20517;-69
2023/06/29 05:17:18;;;;;;;10.70;4.70;;;;;;;;;;5051673;28;20033;-69
2023/06/29 05:19:44;;;;;;;9.05;4.80;;;;;;;;;;5052175;28;20110;-69
2023/06/29 05:22:10;;;;;;;7.78;4.25;;;;;;;;;;5051441;28;20489;-69
2023/06/29 05:24:37;;;;;;;7.53;4.20;;;;;;;;;;5051575;28;20502;-69
2023/06/29 05:27:04;;;;;;;7.35;4.20;;;;;;;;;;5053132;28;20052;-69
2023/06/29 05:29:29;;;;;;;6.00;3.85;;;;;;;;;;5052719;28;20087;-69
2023/06/29 05:31:55;;;;;;;6.28;4.10;;;;;;;;;;5052989;28;20048;-69
2023/06/29 05:34:21;;;;;;;5.70;4.18;;;;;;;;;;5051178;28;20196;-69
2023/06/29 05:36:47;;;;;;;5.38;3.70;;;;;;;;;;5052141;28;20025;-68
2023/06/29 05:39:13;;;;;;;6.38;3.50;;;;;;;;;;5049757;28;20116;-70
2023/06/29 05:41:40;;;;;;;6.70;3.55;;;;;;;;;;5052556;28;20060;-71
2023/06/29 05:44:08;;;;;;;11.82;3.63;;;;;;;;;;5050682;28;20033;-70
2023/06/29 05:46:34;;;;;;;5.40;3.17;;;;;;;;;;5050640;28;20082;-70
2023/06/29 05:49:01;;;;;;;7.22;3.13;;;;;;;;;;5052753;28;20029;-70
2023/06/29 05:51:27;;;;;;;6.30;3.40;;;;;;;;;;5059613;28;20027;-70
2023/06/29 05:53:53;;;;;;;12.63;4.13;;;;;;;;;;5052468;28;20398;-70
2023/06/29 05:56:19;;;;;;;6.07;3.58;;;;;;;;;;5049226;28;20025;-70
2023/06/29 05:58:45;;;;;;;5.97;3.67;;;;;;;;;;5051084;28;20044;-71
2023/06/29 06:01:10;;;;;;;4.43;3.55;;;;;;;;;;5050308;28;20036;-70
2023/06/29 06:03:37;;;;;;;7.60;3.40;;;;;;;;;;5048770;28;20116;-71
2023/06/29 06:06:03;;;;;;;7.85;3.45;;;;;;;;;;5051910;28;20056;-71
2023/06/29 06:08:28;;;;;;;7.18;3.45;;;;;;;;;;5051770;28;20479;-71
2023/06/29 06:10:54;;;;;;;6.22;3.97;;;;;;;;;;5051509;28;20485;-71
2023/06/29 06:13:20;;;;;;;5.57;3.30;;;;;;;;;;5051879;28;20028;-69
2023/06/29 06:15:45;;;;;;;7.68;3.60;;;;;;;;;;5048604;28;20025;-69
2023/06/29 06:18:12;;;;;;;5.63;3.75;;;;;;;;;;5050131;28;20041;-70
2023/06/29 06:20:37;;;;;;;4.03;3.15;;;;;;;;;;5049123;28;20029;-69
2023/06/29 06:23:03;;;;;;;10.93;3.30;;;;;;;;;;5051171;28;20031;-70
2023/06/29 06:25:29;;;;;;;8.35;3.50;;;;;;;;;;5051210;28;20457;-70
2023/06/29 06:27:54;;;;;;;8.90;2.80;;;;;;;;;;5051593;28;20037;-71
2023/06/29 06:30:22;;;;;;;10.45;3.30;;;;;;;;;;5051553;28;20025;-70
2023/06/29 06:32:50;;;;;;;4.60;3.00;;;;;;;;;;5048810;28;20158;-71
2023/06/29 06:35:16;;;;;;;9.70;3.00;;;;;;;;;;5051303;28;20378;-73
2023/06/29 06:37:42;;;;;;;10.70;3.53;;;;;;;;;;5051315;28;20061;-71
2023/06/29 06:40:08;;;;;;;4.30;2.75;;;;;;;;;;5051251;28;20525;-71
2023/06/29 06:42:40;;;;;;;5.88;3.05;;;;;;;;;;5050871;28;20044;-73
2023/06/29 06:45:06;;;;;;;4.32;2.90;;;;;;;;;;5048900;28;20029;-71
2023/06/29 06:47:34;;;;;;;8.88;3.78;;;;;;;;;;5051491;28;20048;-71
2023/06/29 06:50:02;;;;;;;4.55;2.90;;;;;;;;;;5042824;28;20112;-72
2023/06/29 06:52:27;;;;;;;5.28;2.85;;;;;;;;;;5050383;28;20020;-71
2023/06/29 06:54:56;;;;;;;10.10;2.80;;;;;;;;;;5050028;28;20028;-71
2023/06/29 06:57:22;;;;;;;7.35;3.63;;;;;;;;;;5049007;28;20067;-70
2023/06/29 06:59:48;;;;;;;10.02;4.13;;;;;;;;;;5051345;28;20052;-69
2023/06/29 07:02:14;;;;;;;5.70;3.38;;;;;;;;;;5051347;28;20056;-70
2023/06/29 07:04:42;;;;;;;6.22;3.22;;;;;;;;;;5049492;28;20044;-71
2023/06/29 07:07:09;;;;;;;4.68;2.88;;;;;;;;;;5051931;28;20029;-72
2023/06/29 07:09:35;;;;;;;4.57;3.00;;;;;;;;;;5050660;28;20028;-71
2023/06/29 07:12:01;;;;;;;4.60;3.35;;;;;;;;;;5049941;28;20025;-72
2023/06/29 07:14:27;;;;;;;5.28;3.50;;;;;;;;;;5028073;28;20079;-72
2023/06/29 07:16:55;;;;;;;4.30;2.90;;;;;;;;;;5051197;28;20074;-70
2023/06/29 07:19:21;;;;;;;4.65;3.15;;;;;;;;;;5043594;28;20090;-72
2023/06/29 07:21:48;;;;;;;6.07;3.50;;;;;;;;;;5049566;28;20036;-71
2023/06/29 07:24:14;;;;;;;5.00;3.65;;;;;;;;;;5050812;28;20042;-71
2023/06/29 07:26:40;;;;;;;12.20;4.75;;;;;;;;;;5041413;28;20082;-70
2023/06/29 07:29:07;;;;;;;6.65;3.63;;;;;;;;;;5031283;28;20138;-70
2023/06/29 07:31:34;;;;;;;6.18;3.50;;;;;;;;;;5031209;28;20025;-70
2023/06/29 07:33:59;;;;;;;6.00;3.83;;;;;;;;;;5031130;28;20064;-73
2023/06/29 07:36:26;;;;;;;8.95;3.70;;;;;;;;;;5032419;28;20026;-71
2023/06/29 07:38:52;;;;;;;8.50;3.95;;;;;;;;;;5047241;28;20065;-73
2023/06/29 07:41:19;;;;;;;7.10;4.03;;;;;;;;;;5030724;28;20030;-72
2023/06/29 07:43:54;;;;;;;5.95;4.25;;;;;;;;;;5031231;28;20083;-71
2023/06/29 07:46:21;;;;;;;7.03;3.92;;;;;;;;;;5043978;28;20071;-72
2023/06/29 07:48:47;;;;;;;4.55;3.67;;;;;;;;;;5041479;28;20087;-72
2023/06/29 07:51:14;;;;;;;8.13;4.20;;;;;;;;;;5049402;28;20368;-73
2023/06/29 07:53:40;;;;;;;7.45;4.57;;;;;;;;;;5047306;28;20032;-73
2023/06/29 07:56:06;;;;;;;4.95;3.47;;;;;;;;;;5046526;28;20028;-73
2023/06/29 07:58:34;;;;;;;5.53;4.05;;;;;;;;;;5043517;28;20021;-71
2023/06/29 08:01:01;;;;;;;6.38;3.80;;;;;;;;;;5047650;28;20052;-70
2023/06/29 08:03:27;;;;;;;5.00;3.53;;;;;;;;;;5048715;28;20147;-71
2023/06/29 08:05:53;;;;;;;8.35;3.80;;;;;;;;;;5054628;28;20444;-71
2023/06/29 08:08:20;;;;;;;10.77;4.25;;;;;;;;;;5054136;28;20115;-71
2023/06/29 08:10:47;;;;;;;4.55;3.50;;;;;;;;;;5054239;28;20048;-70
2023/06/29 08:13:13;;;;;;;5.93;3.38;;;;;;;;;;5053779;28;20025;-70
2023/06/29 08:15:39;;;;;;;5.85;3.78;;;;;;;;;;5050428;28;20402;-71
2023/06/29 08:18:04;;;;;;;5.53;3.20;;;;;;;;;;5053919;28;20032;-70
2023/06/29 08:20:30;;;;;;;6.07;3.20;;;;;;;;;;5053282;28;20524;-70
2023/06/29 08:22:56;;;;;;;6.78;3.40;;;;;;;;;;5053529;28;20486;-71
2023/06/29 08:25:23;;;;;;;5.80;3.80;;;;;;;;;;5052970;28;20039;-70
2023/06/29 08:27:49;;;;;;;4.97;3.47;;;;;;;;;;5052492;28;20639;-70
2023/06/29 08:30:16;;;;;;;5.07;3.40;;;;;;;;;;5050227;28;20037;-71
2023/06/29 08:32:48;;;;;;;6.47;3.38;;;;;;;;;;5051988;28;20109;-70
2023/06/29 08:35:14;;;;;;;5.18;3.55;;;;;;;;;;5052941;28;20025;-71
2023/06/29 08:37:41;;;;;;;7.15;3.35;;;;;;;;;;5045707;28;20336;-71
2023/06/29 08:40:11;;;;;;;5.22;3.35;;;;;;;;;;5052766;28;20415;-71
2023/06/29 08:42:39;;;;;;;4.78;2.85;;;;;;;;;;5053175;28;20033;-72
2023/06/29 08:45:06;;;;;;;7.68;3.50;;;;;;;;;;5053688;28;20036;-71
2023/06/29 08:47:34;;;;;;;3.75;3.00;;;;;;;;;;5052521;28;20035;-71
2023/06/29 08:50:02;;;;;;;6.35;3.20;;;;;;;;;;5053228;28;20037;-71
2023/06/29 08:52:31;;;;;;;4.40;2.90;;;;;;;;;;5051853;28;21295;-70
2023/06/29 08:54:58;;;;;;;6.15;3.20;;;;;;;;;;5053356;28;20041;-72
2023/06/29 08:57:24;;;;;;;5.30;3.15;;;;;;;;;;5053224;28;20399;-72
2023/06/29 08:59:51;;;;;;;6.97;3.20;;;;;;;;;;5044410;28;20041;-71
2023/06/29 09:02:18;;;;;;;6.20;3.17;;;;;;;;;;5041094;28;20522;-71
2023/06/29 09:04:44;;;;;;;4.00;2.80;;;;;;;;;;5045680;28;20041;-72
2023/06/29 09:07:12;;;;;;;5.45;3.10;;;;;;;;;;5051656;28;20047;-71
2023/06/29 09:09:38;;;;;;;13.45;3.35;;;;;;;;;;5045002;28;20238;-72
2023/06/29 09:12:04;;;;;;;5.30;2.95;;;;;;;;;;5051494;28;20029;-70
2023/06/29 09:14:35;;;;;;;6.38;2.97;;;;;;;;;;5039578;28;20053;-72
2023/06/29 09:17:01;;;;;;;8.75;2.90;;;;;;;;;;5032511;28;20131;-71
2023/06/29 09:19:29;;;;;;;4.68;2.78;;;;;;;;;;5045555;28;20482;-71
2023/06/29 09:21:58;;;;;;;4.75;3.00;;;;;;;;;;5053225;28;20047;-71
2023/06/29 09:24:27;;;;;;;4.40;2.95;;;;;;;;;;5041769;28;20033;-71
2023/06/29 09:26:54;;;;;;;5.35;3.10;;;;;;;;;;5047028;28;20039;-72
2023/06/29 09:29:20;;;;;;;6.88;3.30;;;;;;;;;;5043656;28;20059;-71
2023/06/29 09:31:58;;;;;;;5.07;2.83;;;;;;;;;;5047346;28;20039;-70
2023/06/29 09:34:27;;;;;;;5.60;3.03;;;;;;;;;;5048495;28;20082;-72
2023/06/29 09:36:54;;;;;;;4.60;3.25;;;;;;;;;;5051452;28;20036;-71
2023/06/29 09:39:22;;;;;;;5.72;3.22;;;;;;;;;;5050583;28;20025;-71
2023/06/29 09:41:48;;;;;;;6.55;3.30;;;;;;;;;;5042529;28;20029;-71
2023/06/29 09:44:19;;;;;;;6.20;3.25;;;;;;;;;;5047611;28;20063;-72
2023/06/29 09:46:48;;;;;;;4.20;2.78;;;;;;;;;;5048837;28;20059;-71
2023/06/29 09:49:15;;;;;;;5.75;3.13;;;;;;;;;;5047634;28;20041;-75
2023/06/29 09:51:44;;;;;;;5.72;3.10;;;;;;;;;;5049137;28;20107;-71
2023/06/29 09:54:11;;;;;;;4.65;3.05;;;;;;;;;;5052195;28;20025;-74
2023/06/29 09:56:37;;;;;;;6.53;2.95;;;;;;;;;;5037964;28;20041;-73
2023/06/29 09:59:04;;;;;;;5.65;3.13;;;;;;;;;;5049301;28;20111;-73
2023/06/29 10:01:30;;;;;;;6.15;3.60;;;;;;;;;;5050277;28;20127;-72
2023/06/29 10:03:56;;;;;;;6.10;3.20;;;;;;;;;;5042754;28;20032;-71
2023/06/29 10:06:33;;;;;;;5.43;3.42;;;;;;;;;;5047318;28;20072;-71
2023/06/29 10:09:00;;;;;;;6.05;3.10;;;;;;;;;;5031385;28;20040;-71
2023/06/29 10:11:31;;;;;;;7.50;3.35;;;;;;;;;;5032667;28;20021;-71
2023/06/29 10:14:01;;;;;;;4.38;3.45;;;;;;;;;;5031509;28;20095;-71
2023/06/29 10:16:31;;;;;;;7.03;3.85;;;;;;;;;;5040686;28;20028;-72
2023/06/29 10:19:21;;;;;;;4.35;3.22;;;;;;;;;;5052235;28;20522;-73
2023/06/29 10:21:56;;;;;;;7.10;3.60;;;;;;;;;;5050356;28;20076;-70
2023/06/29 10:24:34;;;;;;;7.32;3.60;;;;;;;;;;5046881;28;20057;-72
2023/06/29 10:27:02;;;;;;;7.13;3.63;;;;;;;;;;5048680;28;20043;-71
2023/06/29 10:29:28;;;;;;;7.28;4.72;;;;;;;;;;5051372;28;20036;-73
2023/06/29 10:31:58;;;;;;;5.25;3.45;;;;;;;;;;5051399;28;20051;-71
2023/06/29 10:34:27;;;;;;;5.78;3.50;;;;;;;;;;5050437;28;20509;-72
2023/06/29 10:37:02;;;;;;;4.22;2.65;;;;;;;;;;5049610;28;20047;-71
2023/06/29 10:39:44;;;;;;;9.25;3.15;;;;;;;;;;5050378;28;20116;-72
2023/06/29 10:42:23;;;;;;;7.60;3.20;;;;;;;;;;5051694;28;20390;-72
2023/06/29 10:44:51;;;;;;;6.07;3.28;;;;;;;;;;5051693;28;20072;-72
2023/06/29 10:47:39;;;;;;;6.13;3.60;;;;;;;;;;5050334;28;20040;-71
2023/06/29 10:50:10;;;;;;;9.40;3.45;;;;;;;;;;5049686;28;20377;-73
2023/06/29 10:52:37;;;;;;;5.50;2.65;;;;;;;;;;5048035;28;20032;-72
2023/06/29 10:55:15;;;;;;;6.25;3.10;;;;;;;;;;5050848;28;20023;-71
2023/06/29 10:58:06;;;;;;;7.68;2.90;;;;;;;;;;5048798;28;20052;-72
2023/06/29 11:00:32;;;;;;;11.25;3.83;;;;;;;;;;5042276;28;20132;-72
2023/06/29 11:02:59;;;;;;;6.55;3.20;;;;;;;;;;5047976;28;20028;-71
2023/06/29 11:05:28;;;;;;;7.65;3.42;;;;;;;;;;5038222;28;20033;-72
2023/06/29 11:07:53;;;;;;;8.57;3.50;;;;;;;;;;5028893;28;20036;-71
2023/06/29 11:10:21;;;;;;;12.13;3.00;;;;;;;;;;5028697;28;20054;-73
2023/06/29 11:12:49;;;;;;;7.65;3.70;;;;;;;;;;5029817;28;20483;-73
2023/06/29 11:15:16;;;;;;;6.00;3.65;;;;;;;;;;5031291;28;20037;-73
2023/06/29 11:17:44;;;;;;;6.28;3.30;;;;;;;;;;5030053;28;20056;-73
2023/06/29 11:20:15;;;;;;;4.28;2.92;;;;;;;;;;5030926;28;20435;-75
2023/06/29 11:22:43;;;;;;;8.15;3.38;;;;;;;;;;5030981;28;20112;-74
2023/06/29 11:25:14;;;;;;;3.72;2.63;;;;;;;;;;5029551;28;20049;-73
2023/06/29 11:27:41;;;;;;;5.80;3.10;;;;;;;;;;5030790;28;20060;-75
2023/06/29 11:30:10;;;;;;;5.13;3.20;;;;;;;;;;5046799;28;20028;-74
2023/06/29 11:32:40;;;;;;;5.35;3.05;;;;;;;;;;5050318;28;20124;-75
2023/06/29 11:35:09;;;;;;;4.88;3.33;;;;;;;;;;5050272;28;20056;-73
2023/06/29 11:37:36;;;;;;;7.00;3.45;;;;;;;;;;5045546;28;20025;-75
2023/06/29 11:40:07;;;;;;;5.85;3.30;;;;;;;;;;5055359;28;20028;-75
2023/06/29 11:42:35;;;;;;;5.90;3.50;;;;;;;;;;5054288;28;20052;-76
2023/06/29 11:45:06;;;;;;;6.32;3.17;;;;;;;;;;5054077;28;20037;-75
2023/06/29 11:47:32;;;;;;;6.05;3.17;;;;;;;;;;5055671;28;20052;-76
2023/06/29 11:50:02;;;;;;;8.43;3.10;;;;;;;;;;5053966;28;20087;-76
2023/06/29 11:52:30;;;;;;;5.60;3.22;;;;;;;;;;5054107;28;20055;-74
2023/06/29 11:54:56;;;;;;;8.35;3.83;;;;;;;;;;5055518;28;20115;-74
2023/06/29 11:57:22;;;;;;;10.70;3.55;;;;;;;;;;5054282;28;20047;-74
2023/06/29 11:59:48;;;;;;;3.63;2.83;;;;;;;;;;5054298;28;20084;-76
2023/06/29 12:02:16;;;;;;;12.32;3.75;;;;;;;;;;5054963;28;20045;-74
2023/06/29 12:04:58;;;;;;;5.53;3.20;;;;;;;;;;5055412;28;20116;-75
2023/06/29 12:07:41;;;;;;;6.72;3.30;;;;;;;;;;5054983;28;20065;-74
2023/06/29 12:10:08;;;;;;;;;;;;;;;;;;5053843;28;20506;-73
2023/06/29 12:12:45;;;;;;;5.90;3.25;;;;;;;;;;5054851;28;19944;-74
2023/06/29 12:15:18;;;;;;;9.48;3.63;;;;;;;;;;5058761;28;20029;-76
2023/06/29 12:17:48;;;;;;;7.78;4.18;;;;;;;;;;5056949;28;20036;-75
2023/06/29 12:20:18;;;;;;;7.38;3.20;;;;;;;;;;5036777;28;20112;-73
2023/06/29 12:22:48;;;;;;;4.85;3.05;;;;;;;;;;5054530;28;20033;-74
2023/06/29 12:25:16;;;;;;;8.30;3.55;;;;;;;;;;5054365;28;20028;-73
2023/06/29 12:27:43;;;;;;;4.82;3.30;;;;;;;;;;5054306;28;20033;-73
2023/06/29 12:30:11;;;;;;;7.32;3.20;;;;;;;;;;5054009;28;20051;-73
2023/06/29 12:32:37;;;;;;;5.97;3.42;;;;;;;;;;5054670;28;20041;-75
2023/06/29 12:35:04;;;;;;;4.15;3.33;;;;;;;;;;5054189;28;20392;-76
2023/06/29 12:37:30;;;;;;;7.28;3.53;;;;;;;;;;5052671;28;20036;-74
2023/06/29 12:39:55;;;;;;;7.32;3.47;;;;;;;;;;5052774;28;20051;-75
2023/06/29 12:42:23;;;;;;;5.13;3.50;;;;;;;;;;5050203;28;20133;-73
2023/06/29 12:44:50;;;;;;;6.28;4.00;;;;;;;;;;5050044;28;20034;-72
2023/06/29 12:47:18;;;;;;;6.60;3.53;;;;;;;;;;5039210;28;20030;-74
2023/06/29 12:49:46;;;;;;;6.05;3.28;;;;;;;;;;5047702;28;20029;-76
2023/06/29 12:52:16;;;;;;;6.30;3.10;;;;;;;;;;5033404;28;20060;-74
2023/06/29 12:54:42;;;;;;;9.05;3.63;;;;;;;;;;5045467;28;20088;-75
2023/06/29 12:57:12;;;;;;;8.50;3.88;;;;;;;;;;5046218;28;20041;-75
2023/06/29 12:59:38;;;;;;;4.63;3.25;;;;;;;;;;5038678;28;20021;-74
2023/06/29 13:02:05;;;;;;;4.93;3.45;;;;;;;;;;5023921;28;20120;-75
2023/06/29 13:04:34;;;;;;;7.97;3.45;;;;;;;;;;5035915;28;20032;-75
2023/06/29 13:07:00;;;;;;;6.10;3.97;;;;;;;;;;5048054;28;20037;-74
2023/06/29 13:09:26;;;;;;;5.43;3.40;;;;;;;;;;5052462;28;20115;-74
2023/06/29 13:11:52;;;;;;;5.63;3.15;;;;;;;;;;5053979;28;20037;-76
2023/06/29 13:14:18;;;;;;;5.38;3.97;;;;;;;;;;5051323;28;20024;-75
2023/06/29 13:16:43;;;;;;;5.90;3.33;;;;;;;;;;5042165;28;20040;-74
2023/06/29 13:19:10;;;;;;;10.10;3.60;;;;;;;;;;5039443;28;20029;-74
2023/06/29 13:21:36;;;;;;;9.80;3.40;;;;;;;;;;5039609;28;20044;-74
2023/06/29 13:24:02;;;;;;;7.43;4.13;;;;;;;;;;5035198;28;20025;-76
2023/06/29 13:26:28;;;;;;;6.53;3.40;;;;;;;;;;5043034;28;20047;-76
2023/06/29 13:28:54;;;;;;;4.97;3.40;;;;;;;;;;5041565;28;20026;-74
2023/06/29 13:31:20;;;;;;;5.53;3.47;;;;;;;;;;5043233;28;20033;-77
2023/06/29 13:33:48;;;;;;;11.10;3.80;;;;;;;;;;5043468;28;20048;-75
2023/06/29 13:36:14;;;;;;;7.45;3.55;;;;;;;;;;5047587;28;20554;-75
2023/06/29 13:38:40;;;;;;;7.68;3.58;;;;;;;;;;5050362;28;20115;-72
2023/06/29 13:41:05;;;;;;;9.75;3.63;;;;;;;;;;5034574;28;20129;-73
2023/06/29 13:43:31;;;;;;;6.65;3.70;;;;;;;;;;5038690;28;20030;-73
2023/06/29 13:45:57;;;;;;;7.25;4.05;;;;;;;;;;5032554;28;20029;-75
2023/06/29 13:48:22;;;;;;;8.25;3.58;;;;;;;;;;5048440;28;20032;-72
2023/06/29 13:50:48;;;;;;;6.55;3.42;;;;;;;;;;5048500;28;20150;-72
2023/06/29 13:53:15;;;;;;;5.20;3.40;;;;;;;;;;5051464;28;20044;-74
2023/06/29 13:55:44;;;;;;;6.53;3.80;;;;;;;;;;5053038;28;20238;-74
2023/06/29 13:58:10;;;;;;;8.02;3.60;;;;;;;;;;5051265;28;20044;-72
2023/06/29 14:00:36;;;;;;;5.38;3.05;;;;;;;;;;5067420;28;20024;-72
2023/06/29 14:03:03;;;;;;;7.47;3.25;;;;;;;;;;5051295;28;20499;-71
2023/06/29 14:05:29;;;;;;;6.72;3.55;;;;;;;;;;5051496;28;20036;-74
2023/06/29 14:07:56;;;;;;;4.78;3.50;;;;;;;;;;5051104;28;20040;-73
2023/06/29 14:10:23;;;;;;;8.85;3.53;;;;;;;;;;5050427;28;20029;-73
2023/06/29 14:12:48;;;;;;;7.40;3.90;;;;;;;;;;5050831;28;20040;-73
2023/06/29 14:15:14;;;;;;;8.82;3.70;;;;;;;;;;5051803;28;20025;-73
2023/06/29 14:17:40;;;;;;;6.53;3.85;;;;;;;;;;5052404;28;20033;-75
2023/06/29 14:20:06;;;;;;;5.55;3.75;;;;;;;;;;5051497;28;20035;-73
2023/06/29 14:22:32;;;;;;;6.70;3.88;;;;;;;;;;5052376;28;20098;-73
2023/06/29 14:24:58;;;;;;;5.10;3.53;;;;;;;;;;5051313;28;20517;-72
2023/06/29 14:27:24;;;;;;;5.95;3.63;;;;;;;;;;5051727;28;20032;-73
2023/06/29 14:29:52;;;;;;;6.03;3.38;;;;;;;;;;5049876;28;20461;-72
2023/06/29 14:32:19;;;;;;;8.43;4.30;;;;;;;;;;5052098;28;20037;-74
2023/06/29 14:34:47;;;;;;;10.38;4.00;;;;;;;;;;5052030;28;20021;-73
2023/06/29 14:37:18;;;;;;;6.57;3.75;;;;;;;;;;5049997;28;20067;-72
2023/06/29 14:39:43;;;;;;;6.80;3.90;;;;;;;;;;5050059;28;20475;-74